METAR Data
IDs: Format: Raw Decoded Include TAF

Data at: 1341 UTC 14 Dec 2019

PAKK 141256Z AUTO 02007KT 10SM FEW021 BKN032 OVC050 M03/M07 A2951 RMK AO2 SNE14 SLP003 P0000 T10281072 FZRANO
PAKK 141206Z AUTO 01006KT 9SM -SN SCT025 BKN033 M03/M07 A2952 RMK AO2 P0000 FZRANO
PAKK 141156Z AUTO 02006KT 9SM -SN BKN025 OVC033 M02/M07 A2952 RMK AO2 SNB54 SLP008 P0000 60000 T10221072 11022 21078 50008 FZRANO
PAKK 141056Z AUTO 00000KT 10SM OVC024 M04/M08 A2953 RMK AO2 SLP010 T10441083 FZRANO
PAKK 141029Z AUTO 00000KT 10SM BKN026 M04/M08 A2952 RMK AO2 FZRANO
PAKK 140956Z AUTO 03003KT 10SM CLR M06/M08 A2951 RMK AO2 SLP003 T10561083 FZRANO
PAKK 140856Z AUTO 01006KT 10SM FEW048 M04/M08 A2950 RMK AO2 SLP999 T10391078 410391094 53003 FZRANO
PAKK 140756Z AUTO 36003KT 10SM FEW065 SCT080 BKN110 M04/M08 A2949 RMK AO2 SLP997 T10441083 FZRANO
PAKK 140656Z AUTO 03003KT 10SM SCT100 M07/M09 A2949 RMK AO2 SLP997 T10671094 FZRANO
PAKK 140556Z AUTO 36004KT 10SM CLR M08/M10 A2949 RMK AO2 SLP996 T10781100 11061 21094 51017 FZRANO
PAKK 140456Z AUTO 02004KT 10SM CLR M07/M10 A2947 RMK AO2 SLP988 T10721100 FZRANO
PAKK 140356Z AUTO 00000KT 10SM CLR M09/M11 A2946 RMK AO2 SLP988 T10891111 FZRANO
PAKK 140256Z AUTO 01004KT 10SM BKN040 M07/M10 A2944 RMK AO2 SLP979 T10671100 50013 FZRANO
PAKK 140156Z AUTO 02003KT 10SM BKN100 M07/M11 A2944 RMK AO2 SLP980 T10721106 FZRANO
PAKK 140056Z AUTO 03003KT 10SM CLR M07/M11 A2942 RMK AO2 SLP974 T10721111 FZRANO
PAKK 132356Z AUTO 03003KT 10SM BKN060 BKN120 M07/M11 A2940 RMK AO2 SNE05 SLP967 P0000 60000 T10721111 11061 21089 51021 FZRANO
PAKK 132256Z AUTO 07003KT 9SM -SN BKN033 BKN041 OVC050 M06/M11 A2938 RMK AO2 SNE13B32 SLP960 P0000 T10611106 FZRANO
PAKK 132156Z AUTO 04003KT 10SM -SN FEW041 BKN060 BKN090 M07/M12 A2937 RMK AO2 SNB55 SLP955 P0000 T10671117 FZRANO
PAKK 132056Z AUTO 03004KT 10SM FEW036 OVC100 M07/M12 A2934 RMK AO2 SLP945 T10721122 53014 FZRANO
PAKK 131956Z AUTO 03005KT 10SM OVC038 M07/M13 A2932 RMK AO2 SLP940 T10721128 FZRANO
PAKK 131856Z AUTO 03005KT 10SM OVC040 M08/M13 A2931 RMK AO2 SLP935 T10781133 FZRANO
PAKK 131756Z AUTO 04008KT 10SM FEW044 M09/M14 A2930 RMK AO2 SLP932 T10891139 11078 21089 52007 FZRANO
PAKK 131556Z AUTO 03009KT 10SM CLR M09/M14 A2928 RMK AO2 SLP926 T10891144 FZRANO
PAKK 131456Z AUTO 03009G16KT 10SM CLR M09/M14 A2928 RMK AO2 SLP925 T10891139 58008 FZRANO
PAKK 131356Z AUTO 03008KT 10SM CLR M08/M13 A2929 RMK AO2 SLP927 T10831133 FZRANO
PAKK 131256Z AUTO 02010KT 10SM CLR M08/M13 A2930 RMK AO2 SLP931 T10831133 FZRANO
PAKK 131156Z AUTO 02007KT 360V060 10SM CLR M08/M13 A2930 RMK AO2 SLP933 T10781128 11061 21078 55000 FZRANO
PAKK 131056Z AUTO 01007KT 10SM CLR M07/M12 A2928 RMK AO2 SLP925 T10721122 FZRANO
PAKK 130956Z AUTO 01009KT 10SM CLR M08/M12 A2930 RMK AO2 SLP931 T10781122 FZRANO
PAKK 130856Z AUTO 02009KT 10SM CLR M07/M11 A2930 RMK AO2 SLP933 T10671111 410281072 58007 FZRANO
PAKK 130756Z AUTO 02010KT 10SM CLR M06/M10 A2931 RMK AO2 SLP937 T10611100 FZRANO
PAKK 130656Z AUTO 01009KT 10SM CLR M06/M10 A2931 RMK AO2 SLP937 T10611100 FZRANO
PAKK 130556Z AUTO 01013G20KT 10SM CLR M06/M10 A2932 RMK AO2 SLP941 T10611100 11028 21061 55004 FZRANO
PAKK 130456Z AUTO 36010G17KT 10SM CLR M06/M09 A2932 RMK AO2 SLP937 T10561094 FZRANO
PAKK 130356Z AUTO 01012G16KT 10SM CLR M05/M09 A2933 RMK AO2 SLP943 T10501089 FZRANO
PAKK 130256Z AUTO 01010KT 10SM CLR M04/M08 A2934 RMK AO2 SLP944 T10391083 58003 FZRANO
PAKK 130156Z AUTO 36011KT 10SM CLR M04/M09 A2935 RMK AO2 SLP948 T10441089 FZRANO